createdAt,value
2023-05-02T00:00:22.880Z,22.01
2023-05-02T00:01:22.868Z,22.01
2023-05-02T00:02:22.933Z,22.00
2023-05-02T00:03:22.920Z,22.01
2023-05-02T00:04:22.950Z,22.00
2023-05-02T00:05:22.869Z,22.00
2023-05-02T00:06:22.924Z,22.00
2023-05-02T00:07:22.895Z,22.00
2023-05-02T00:08:22.867Z,22.00
2023-05-02T00:09:22.882Z,21.99
2023-05-02T00:10:22.886Z,22.00
2023-05-02T00:11:22.896Z,22.00
2023-05-02T00:12:22.905Z,22.00
2023-05-02T00:13:22.941Z,21.99
2023-05-02T00:14:22.933Z,22.00
2023-05-02T00:15:22.907Z,21.99
2023-05-02T00:16:23.268Z,22.00
2023-05-02T00:17:23.045Z,21.99
2023-05-02T00:18:22.935Z,21.99
2023-05-02T00:19:22.962Z,21.99
2023-05-02T00:20:22.994Z,21.99
2023-05-02T00:21:22.994Z,21.99
2023-05-02T00:22:22.989Z,21.99
2023-05-02T00:23:23.058Z,21.99
2023-05-02T00:24:23.061Z,21.98
2023-05-02T00:25:23.045Z,21.98
2023-05-02T00:26:23.039Z,21.99
2023-05-02T00:27:23.062Z,21.99
2023-05-02T00:28:23.080Z,21.98
2023-05-02T00:29:23.073Z,21.99
2023-05-02T00:30:23.098Z,21.99
2023-05-02T00:31:23.138Z,21.99
2023-05-02T00:32:23.307Z,21.98
2023-05-02T00:33:23.134Z,21.98
2023-05-02T00:34:23.141Z,21.98
2023-05-02T00:35:23.155Z,21.98
2023-05-02T00:36:23.166Z,21.98
2023-05-02T00:37:23.175Z,21.98
2023-05-02T00:38:23.203Z,21.98
2023-05-02T00:39:23.245Z,21.98
2023-05-02T00:40:23.193Z,21.98
2023-05-02T00:41:23.239Z,21.98
2023-05-02T00:42:23.240Z,21.98
2023-05-02T00:43:23.278Z,21.97
2023-05-02T00:44:23.293Z,21.98
2023-05-02T00:45:23.334Z,21.98
2023-05-02T00:46:25.382Z,21.98
2023-05-02T00:47:23.345Z,21.97
2023-05-02T00:48:23.375Z,21.98
2023-05-02T00:49:23.412Z,21.97
2023-05-02T00:50:23.414Z,21.97
2023-05-02T00:51:23.409Z,21.97
2023-05-02T00:52:23.422Z,21.97
2023-05-02T00:53:23.431Z,21.97
2023-05-02T00:54:23.455Z,21.97
2023-05-02T00:55:23.472Z,21.97
2023-05-02T00:56:23.501Z,21.97
2023-05-02T00:57:23.533Z,21.97
2023-05-02T00:58:23.587Z,21.97
2023-05-02T00:59:23.590Z,21.97
2023-05-02T01:00:23.592Z,21.97
2023-05-02T01:01:23.711Z,21.98
2023-05-02T01:02:23.845Z,21.97
2023-05-02T01:03:23.769Z,21.97
2023-05-02T01:04:23.757Z,21.97
2023-05-02T01:05:23.710Z,21.96
2023-05-02T01:06:23.750Z,21.96
2023-05-02T01:07:23.793Z,21.96
2023-05-02T01:08:23.833Z,21.96
2023-05-02T01:09:23.836Z,21.96
2023-05-02T01:10:23.855Z,21.96
2023-05-02T01:11:23.922Z,21.95
2023-05-02T01:12:23.900Z,21.96
2023-05-02T01:13:23.962Z,21.96
2023-05-02T01:14:23.981Z,21.96
2023-05-02T01:15:23.993Z,21.96
2023-05-02T01:16:24.135Z,21.96
2023-05-02T01:17:24.068Z,21.96
2023-05-02T01:18:24.067Z,21.96
2023-05-02T01:19:24.096Z,21.96
2023-05-02T01:20:24.163Z,21.96
2023-05-02T01:21:24.151Z,21.96
2023-05-02T01:22:24.180Z,21.95
2023-05-02T01:23:24.231Z,21.96
2023-05-02T01:24:24.240Z,21.95
2023-05-02T01:25:24.286Z,21.96
2023-05-02T01:26:24.297Z,21.96
2023-05-02T01:27:24.309Z,21.96
2023-05-02T01:28:24.332Z,21.95
2023-05-02T01:29:24.363Z,21.95
2023-05-02T01:30:24.433Z,21.95
2023-05-02T01:31:24.470Z,21.95
2023-05-02T01:32:24.522Z,21.95
2023-05-02T01:33:24.523Z,21.95
2023-05-02T01:34:24.552Z,21.95
2023-05-02T01:35:24.553Z,21.95
2023-05-02T01:36:24.591Z,21.95
2023-05-02T01:37:24.610Z,21.95
2023-05-02T01:38:24.631Z,21.94
2023-05-02T01:39:24.635Z,21.95
2023-05-02T01:40:24.666Z,21.95
2023-05-02T01:41:24.684Z,21.94
2023-05-02T01:42:24.688Z,21.94
2023-05-02T01:43:24.685Z,21.94
2023-05-02T01:44:24.702Z,21.95
2023-05-02T01:45:24.708Z,21.94
2023-05-02T01:46:24.763Z,21.94
2023-05-02T01:47:24.762Z,21.94
2023-05-02T01:48:24.768Z,21.94
2023-05-02T01:49:24.787Z,21.93
2023-05-02T01:50:24.809Z,21.94
2023-05-02T01:51:24.798Z,21.94
2023-05-02T01:52:24.846Z,21.93
2023-05-02T01:53:24.856Z,21.94
2023-05-02T01:54:24.864Z,21.94
2023-05-02T01:55:24.854Z,21.94
2023-05-02T01:56:24.870Z,21.94
2023-05-02T01:57:24.891Z,21.94
2023-05-02T01:58:24.898Z,21.94
2023-05-02T01:59:24.920Z,21.94
2023-05-02T02:00:24.952Z,21.93
2023-05-02T02:01:25.024Z,21.94
2023-05-02T02:02:25.026Z,21.93
2023-05-02T02:03:25.119Z,21.92
2023-05-02T02:04:25.090Z,21.94
2023-05-02T02:05:25.091Z,21.93
2023-05-02T02:06:25.172Z,21.93
2023-05-02T02:07:25.173Z,21.93
2023-05-02T02:08:25.198Z,21.93
2023-05-02T02:09:25.207Z,21.93
2023-05-02T02:10:25.273Z,21.93
2023-05-02T02:11:25.293Z,21.93
2023-05-02T02:12:25.337Z,21.92
2023-05-02T02:13:25.348Z,21.93
2023-05-02T02:14:25.391Z,21.92
2023-05-02T02:15:25.395Z,21.93
2023-05-02T02:16:25.541Z,21.92
2023-05-02T02:17:25.505Z,21.92
2023-05-02T02:18:25.481Z,21.92
2023-05-02T02:19:25.530Z,21.93
2023-05-02T02:20:25.524Z,21.92
2023-05-02T02:21:25.545Z,21.92
2023-05-02T02:22:25.560Z,21.92
2023-05-02T02:23:25.604Z,21.93
2023-05-02T02:24:25.631Z,21.91
2023-05-02T02:25:25.680Z,21.92
2023-05-02T02:26:27.342Z,21.92
2023-05-02T02:27:25.859Z,21.92
2023-05-02T02:28:25.786Z,21.92
2023-05-02T02:29:25.815Z,21.92
2023-05-02T02:30:25.852Z,21.92
2023-05-02T02:31:26.013Z,21.91
2023-05-02T02:32:25.969Z,21.92
2023-05-02T02:33:25.965Z,21.91
2023-05-02T02:34:25.980Z,21.91
2023-05-02T02:35:25.966Z,21.91
2023-05-02T02:36:26.004Z,21.91
2023-05-02T02:37:26.013Z,21.91
2023-05-02T02:38:26.017Z,21.92
2023-05-02T02:39:26.051Z,21.92
2023-05-02T02:40:26.047Z,21.92
2023-05-02T02:41:26.057Z,21.91
2023-05-02T02:42:26.084Z,21.92
2023-05-02T02:43:26.109Z,21.91
2023-05-02T02:44:26.135Z,21.92
2023-05-02T02:45:26.175Z,21.91
2023-05-02T02:46:26.222Z,21.91
2023-05-02T02:47:26.224Z,21.90
2023-05-02T02:48:26.275Z,21.91
2023-05-02T02:49:26.285Z,21.91
2023-05-02T02:50:26.349Z,21.91
2023-05-02T02:51:26.359Z,21.91
2023-05-02T02:52:26.393Z,21.91
2023-05-02T02:53:26.523Z,21.91
2023-05-02T02:54:27.544Z,21.91
2023-05-02T02:55:26.496Z,21.90
2023-05-02T02:56:26.536Z,21.91
2023-05-02T02:57:26.545Z,21.91
2023-05-02T02:58:26.591Z,21.90
2023-05-02T02:59:26.644Z,21.90
2023-05-02T03:00:26.652Z,21.89
2023-05-02T03:01:26.766Z,21.90
2023-05-02T03:02:26.738Z,21.90
2023-05-02T03:03:26.797Z,21.90
2023-05-02T03:04:26.801Z,21.89
2023-05-02T03:05:26.816Z,21.90
2023-05-02T03:06:26.899Z,21.90
2023-05-02T03:07:26.857Z,21.90
2023-05-02T03:08:26.928Z,21.90
2023-05-02T03:09:26.984Z,21.90
2023-05-02T03:10:26.977Z,21.90
2023-05-02T03:11:28.315Z,21.89
2023-05-02T03:12:27.061Z,21.90
2023-05-02T03:13:27.104Z,21.89
2023-05-02T03:14:27.128Z,21.90
2023-05-02T03:15:27.174Z,21.90
2023-05-02T03:16:27.207Z,21.89
2023-05-02T03:17:27.267Z,21.90
2023-05-02T03:18:27.221Z,21.89
2023-05-02T03:19:27.254Z,21.89
2023-05-02T03:20:27.254Z,21.89
2023-05-02T03:21:27.287Z,21.90
2023-05-02T03:22:27.298Z,21.89
2023-05-02T03:23:27.376Z,21.89
2023-05-02T03:24:27.395Z,21.89
2023-05-02T03:25:27.406Z,21.89
2023-05-02T03:26:27.438Z,21.89
2023-05-02T03:27:27.464Z,21.89
2023-05-02T03:28:27.517Z,21.89
2023-05-02T03:29:27.526Z,21.89
2023-05-02T03:30:27.578Z,21.89
2023-05-02T03:31:27.668Z,21.88
2023-05-02T03:32:27.641Z,21.88
2023-05-02T03:33:27.648Z,21.89
2023-05-02T03:34:27.696Z,21.88
2023-05-02T03:35:27.736Z,21.89
2023-05-02T03:36:27.763Z,21.88
2023-05-02T03:37:27.792Z,21.88
2023-05-02T03:38:27.799Z,21.88
2023-05-02T03:39:27.832Z,21.89
2023-05-02T03:40:27.878Z,21.88
2023-05-02T03:41:28.020Z,21.88
2023-05-02T03:42:27.938Z,21.88
2023-05-02T03:43:27.987Z,21.88
2023-05-02T03:44:28.012Z,21.88
2023-05-02T03:45:28.033Z,21.88
2023-05-02T03:46:29.896Z,21.88
2023-05-02T03:47:28.143Z,21.88
2023-05-02T03:48:28.152Z,21.88
2023-05-02T03:49:28.190Z,21.88
2023-05-02T03:50:28.225Z,21.88
2023-05-02T03:51:28.222Z,21.88
2023-05-02T03:52:28.280Z,21.87
2023-05-02T03:53:28.288Z,21.88
2023-05-02T03:54:28.335Z,21.88
2023-05-02T03:55:28.389Z,21.87
2023-05-02T03:56:28.407Z,21.88
2023-05-02T03:57:28.441Z,21.88
2023-05-02T03:58:28.490Z,21.87
2023-05-02T03:59:28.514Z,21.88
2023-05-02T04:00:28.545Z,21.88
2023-05-02T04:01:28.611Z,21.87
2023-05-02T04:02:28.697Z,21.87
2023-05-02T04:03:29.812Z,21.86
2023-05-02T04:04:28.699Z,21.86
2023-05-02T04:05:28.724Z,21.87
2023-05-02T04:06:28.783Z,21.88
2023-05-02T04:07:28.797Z,21.87
2023-05-02T04:08:28.831Z,21.87
2023-05-02T04:09:28.858Z,21.87
2023-05-02T04:10:28.897Z,21.86
2023-05-02T04:11:28.893Z,21.87
2023-05-02T04:12:28.908Z,21.86
2023-05-02T04:13:29.059Z,21.87
2023-05-02T04:14:28.985Z,21.86
2023-05-02T04:15:29.045Z,21.86
2023-05-02T04:16:29.092Z,21.87
2023-05-02T04:17:29.158Z,21.86
2023-05-02T04:18:29.117Z,21.86
2023-05-02T04:19:29.154Z,21.86
2023-05-02T04:20:29.197Z,21.87
2023-05-02T04:21:29.227Z,21.86
2023-05-02T04:22:29.257Z,21.87
2023-05-02T04:23:29.278Z,21.87
2023-05-02T04:24:29.320Z,21.86
2023-05-02T04:25:29.389Z,21.86
2023-05-02T04:26:29.381Z,21.87
2023-05-02T04:27:29.410Z,21.87
2023-05-02T04:28:29.435Z,21.88
2023-05-02T04:29:29.567Z,21.88
2023-05-02T04:30:29.495Z,21.87
2023-05-02T04:31:29.598Z,21.87
2023-05-02T04:32:29.631Z,21.87
2023-05-02T04:33:29.602Z,21.87
2023-05-02T04:34:29.618Z,21.87
2023-05-02T04:35:29.638Z,21.87
2023-05-02T04:36:29.668Z,21.86
2023-05-02T04:37:29.731Z,21.87
2023-05-02T04:38:29.748Z,21.87
2023-05-02T04:39:29.770Z,21.86
2023-05-02T04:40:29.796Z,21.87
2023-05-02T04:41:29.826Z,21.86
2023-05-02T04:42:29.878Z,21.87
2023-05-02T04:43:29.846Z,21.86
2023-05-02T04:44:29.879Z,21.86
2023-05-02T04:45:29.915Z,21.86
2023-05-02T04:46:30.005Z,21.86
2023-05-02T04:47:30.016Z,21.87
2023-05-02T04:48:29.961Z,21.87
2023-05-02T04:49:29.993Z,21.88
2023-05-02T04:50:30.024Z,21.87
2023-05-02T04:51:29.995Z,21.87
2023-05-02T04:52:30.065Z,21.88
2023-05-02T04:53:30.057Z,21.87
2023-05-02T04:54:30.363Z,21.86
2023-05-02T04:55:30.077Z,21.87
2023-05-02T04:56:30.101Z,21.87
2023-05-02T04:57:30.159Z,21.87
2023-05-02T04:58:30.158Z,21.87
2023-05-02T04:59:30.145Z,21.87
2023-05-02T05:00:30.212Z,21.87
2023-05-02T05:01:30.301Z,21.87
2023-05-02T05:02:30.319Z,21.87
2023-05-02T05:03:30.331Z,21.87
2023-05-02T05:04:30.274Z,21.87
2023-05-02T05:05:30.372Z,21.87
2023-05-02T05:06:30.364Z,21.86
2023-05-02T05:07:30.315Z,21.88
2023-05-02T05:08:30.353Z,21.86
2023-05-02T05:09:30.413Z,21.86
2023-05-02T05:10:30.421Z,21.87
2023-05-02T05:11:30.453Z,21.87
2023-05-02T05:12:30.861Z,21.86
2023-05-02T05:13:30.545Z,21.87
2023-05-02T05:14:30.550Z,21.87
2023-05-02T05:15:30.589Z,21.88
2023-05-02T05:16:30.672Z,21.88
2023-05-02T05:17:30.725Z,21.88
2023-05-02T05:18:30.693Z,21.88
2023-05-02T05:19:30.721Z,21.87
2023-05-02T05:20:30.746Z,21.88
2023-05-02T05:21:30.908Z,21.88
2023-05-02T05:22:30.853Z,21.88
2023-05-02T05:23:30.880Z,21.88
2023-05-02T05:24:30.946Z,21.87
2023-05-02T05:25:30.976Z,21.88
2023-05-02T05:26:30.951Z,21.87
2023-05-02T05:27:31.373Z,21.88
2023-05-02T05:28:31.069Z,21.88
2023-05-02T05:29:31.370Z,21.88
2023-05-02T05:30:31.091Z,21.88
2023-05-02T05:31:31.165Z,21.88
2023-05-02T05:32:31.231Z,21.88
2023-05-02T05:33:31.268Z,21.88
2023-05-02T05:34:31.449Z,21.88
2023-05-02T05:35:31.358Z,21.89
2023-05-02T05:36:31.367Z,21.89
2023-05-02T05:37:31.366Z,21.88
2023-05-02T05:38:31.334Z,21.91
2023-05-02T05:39:31.436Z,21.95
2023-05-02T05:40:31.496Z,21.98
2023-05-02T05:41:31.478Z,22.03
2023-05-02T05:42:31.432Z,22.05
2023-05-02T05:43:32.443Z,22.00
2023-05-02T05:44:31.506Z,21.99
2023-05-02T05:45:31.509Z,22.00
2023-05-02T05:46:31.722Z,22.02
2023-05-02T05:47:31.723Z,22.04
2023-05-02T05:48:31.659Z,22.07
2023-05-02T05:49:31.941Z,22.08
2023-05-02T05:50:31.708Z,22.13
2023-05-02T05:51:31.684Z,22.18
2023-05-02T05:52:31.686Z,22.23
2023-05-02T05:53:31.648Z,22.27
2023-05-02T05:54:32.372Z,22.32
2023-05-02T05:55:31.700Z,22.38
2023-05-02T05:56:31.764Z,22.42
2023-05-02T05:57:31.863Z,22.46
2023-05-02T05:58:31.824Z,22.49
2023-05-02T05:59:31.892Z,22.53
2023-05-02T06:00:31.939Z,22.56
2023-05-02T06:01:32.926Z,22.58
2023-05-02T06:02:32.070Z,22.60
2023-05-02T06:03:32.103Z,22.63
2023-05-02T06:04:32.099Z,22.66
2023-05-02T06:05:32.157Z,22.69
2023-05-02T06:06:32.161Z,22.72
2023-05-02T06:07:32.152Z,22.74
2023-05-02T06:08:32.180Z,22.76
2023-05-02T06:09:32.208Z,22.79
2023-05-02T06:10:32.252Z,22.81
2023-05-02T06:11:32.913Z,22.83
2023-05-02T06:12:32.334Z,22.85
2023-05-02T06:13:32.522Z,22.87
2023-05-02T06:14:32.474Z,22.89
2023-05-02T06:15:32.536Z,22.90
2023-05-02T06:16:32.701Z,22.92
2023-05-02T06:17:32.729Z,22.93
2023-05-02T06:18:32.834Z,22.96
2023-05-02T06:19:32.821Z,22.98
2023-05-02T06:20:32.825Z,23.00
2023-05-02T06:21:32.899Z,23.02
2023-05-02T06:22:32.968Z,23.04
2023-05-02T06:23:33.033Z,23.07
2023-05-02T06:24:33.270Z,23.07
2023-05-02T06:25:33.080Z,23.07
2023-05-02T06:26:33.153Z,23.08
2023-05-02T06:27:33.758Z,23.09
2023-05-02T06:28:33.369Z,23.11
2023-05-02T06:29:33.403Z,23.12
2023-05-02T06:30:33.319Z,23.13
2023-05-02T06:31:33.485Z,23.15
2023-05-02T06:32:33.502Z,23.16
2023-05-02T06:33:33.500Z,23.18
2023-05-02T06:34:33.539Z,23.20
2023-05-02T06:35:33.598Z,23.21
2023-05-02T06:36:33.664Z,23.22
2023-05-02T06:37:34.060Z,23.22
2023-05-02T06:38:33.795Z,23.20
2023-05-02T06:39:33.876Z,23.16
2023-05-02T06:40:33.866Z,23.11
2023-05-02T06:41:33.946Z,23.11
2023-05-02T06:42:33.950Z,23.12
2023-05-02T06:43:34.034Z,23.15
2023-05-02T06:44:34.059Z,23.17
2023-05-02T06:45:34.130Z,23.19
2023-05-02T06:46:34.218Z,23.20
2023-05-02T06:47:34.264Z,23.22
2023-05-02T06:48:34.252Z,23.23
2023-05-02T06:49:34.293Z,23.26
2023-05-02T06:50:34.359Z,23.29
2023-05-02T06:51:34.375Z,23.33
2023-05-02T06:52:34.464Z,23.35
2023-05-02T06:53:34.495Z,23.36
2023-05-02T06:54:34.494Z,23.38
2023-05-02T06:55:34.491Z,23.38
2023-05-02T06:56:34.539Z,23.40
2023-05-02T06:57:34.566Z,23.39
2023-05-02T06:58:34.606Z,23.41
2023-05-02T06:59:34.592Z,23.41
2023-05-02T07:00:34.658Z,23.42
2023-05-02T07:01:34.742Z,23.45
2023-05-02T07:02:34.767Z,23.44
2023-05-02T07:03:34.753Z,23.45
2023-05-02T07:04:34.797Z,23.47
2023-05-02T07:05:34.809Z,23.49
2023-05-02T07:06:34.835Z,23.51
2023-05-02T07:07:34.905Z,23.52
2023-05-02T07:08:34.870Z,23.53
2023-05-02T07:09:34.888Z,23.53
2023-05-02T07:10:34.996Z,23.54
2023-05-02T07:11:34.947Z,23.53
2023-05-02T07:12:35.114Z,23.52
2023-05-02T07:13:34.994Z,23.53
2023-05-02T07:14:35.038Z,23.54
2023-05-02T07:15:35.091Z,23.54
2023-05-02T07:16:35.297Z,23.56
2023-05-02T07:17:35.172Z,23.58
2023-05-02T07:18:35.885Z,23.60
2023-05-02T07:19:35.164Z,23.61
2023-05-02T07:20:35.130Z,23.60
2023-05-02T07:21:35.173Z,23.61
2023-05-02T07:22:35.247Z,23.63
2023-05-02T07:23:35.179Z,23.63
2023-05-02T07:24:35.242Z,23.60
2023-05-02T07:25:35.226Z,23.61
2023-05-02T07:26:35.227Z,23.63
2023-05-02T07:27:35.248Z,23.64
2023-05-02T07:28:35.257Z,23.62
2023-05-02T07:29:35.323Z,23.63
2023-05-02T07:30:35.288Z,23.63
2023-05-02T07:31:35.313Z,23.63
2023-05-02T07:32:35.425Z,23.62
2023-05-02T07:33:35.364Z,23.62
2023-05-02T07:34:35.500Z,23.63
2023-05-02T07:35:35.377Z,23.64
2023-05-02T07:36:35.405Z,23.65
2023-05-02T07:37:35.409Z,23.66
2023-05-02T07:38:35.394Z,23.68
2023-05-02T07:39:35.430Z,23.69
2023-05-02T07:40:35.375Z,23.68
2023-05-02T07:41:35.402Z,23.70
2023-05-02T07:42:35.393Z,23.70
2023-05-02T07:43:35.363Z,23.71
2023-05-02T07:44:35.422Z,23.72
2023-05-02T07:45:35.375Z,23.71
2023-05-02T07:46:35.417Z,23.70
2023-05-02T07:47:35.426Z,23.72
2023-05-02T07:48:35.449Z,23.71
2023-05-02T07:49:35.461Z,23.72
2023-05-02T07:50:35.430Z,23.73
2023-05-02T07:51:35.453Z,23.75
2023-05-02T07:52:35.465Z,23.76
2023-05-02T07:53:35.488Z,23.76
2023-05-02T07:54:35.563Z,23.78
2023-05-02T07:55:35.940Z,23.77
2023-05-02T07:56:35.483Z,23.77
2023-05-02T07:57:36.079Z,23.78
2023-05-02T07:58:35.481Z,23.76
2023-05-02T07:59:35.503Z,23.74
2023-05-02T08:00:35.467Z,23.75
2023-05-02T08:01:35.485Z,23.74
2023-05-02T08:02:35.581Z,23.73
2023-05-02T08:03:35.727Z,23.74
2023-05-02T08:04:35.574Z,23.74
2023-05-02T08:05:37.460Z,23.73
2023-05-02T08:06:35.682Z,23.73
2023-05-02T08:07:36.636Z,23.73
2023-05-02T08:08:35.556Z,23.74
2023-05-02T08:09:35.529Z,23.73
2023-05-02T08:10:35.543Z,23.74
2023-05-02T08:11:35.539Z,23.71
2023-05-02T08:12:35.577Z,23.66
2023-05-02T08:13:35.539Z,23.58
2023-05-02T08:14:35.568Z,23.54
2023-05-02T08:15:35.932Z,23.53
2023-05-02T08:16:35.668Z,23.50
2023-05-02T08:17:35.669Z,23.48
2023-05-02T08:18:35.630Z,23.49
2023-05-02T08:19:35.661Z,23.49
2023-05-02T08:20:35.936Z,23.51
2023-05-02T08:21:35.670Z,23.52
2023-05-02T08:22:35.743Z,23.53
2023-05-02T08:23:35.720Z,23.53
2023-05-02T08:24:35.846Z,23.55
2023-05-02T08:25:35.828Z,23.58
2023-05-02T08:26:35.811Z,23.60
2023-05-02T08:27:35.858Z,23.59
2023-05-02T08:28:35.853Z,23.59
2023-05-02T08:29:35.916Z,23.58
2023-05-02T08:30:35.887Z,23.56
2023-05-02T08:31:35.987Z,23.54
2023-05-02T08:32:36.489Z,23.52
2023-05-02T08:33:35.944Z,23.50
2023-05-02T08:34:35.957Z,23.47
2023-05-02T08:35:36.039Z,23.44
2023-05-02T08:36:35.978Z,23.42
2023-05-02T08:37:36.092Z,23.39
2023-05-02T08:38:36.049Z,23.37
2023-05-02T08:39:36.094Z,23.35
2023-05-02T08:40:41.552Z,23.33
2023-05-02T08:41:37.062Z,23.29
2023-05-02T08:42:36.473Z,23.25
2023-05-02T08:43:36.050Z,23.21
2023-05-02T08:44:36.074Z,23.22
2023-05-02T08:45:36.037Z,23.27
2023-05-02T08:46:36.162Z,23.32
2023-05-02T08:47:36.074Z,23.37
2023-05-02T08:48:35.999Z,23.41
2023-05-02T08:49:35.993Z,23.45
2023-05-02T08:50:35.998Z,23.48
2023-05-02T08:51:36.678Z,23.53
2023-05-02T08:52:35.986Z,23.55
2023-05-02T08:53:35.987Z,23.58
2023-05-02T08:54:36.007Z,23.61
2023-05-02T08:55:35.977Z,23.63
2023-05-02T08:56:35.945Z,23.67
2023-05-02T08:57:35.937Z,23.70
2023-05-02T08:58:36.308Z,23.74
2023-05-02T08:59:35.933Z,23.75
2023-05-02T09:00:35.932Z,23.77
2023-05-02T09:01:35.991Z,23.78
2023-05-02T09:02:35.979Z,23.81
2023-05-02T09:03:35.923Z,23.84
2023-05-02T09:04:35.996Z,23.87
2023-05-02T09:05:35.986Z,23.89
2023-05-02T09:06:35.911Z,23.91
2023-05-02T09:07:35.877Z,23.92
2023-05-02T09:08:35.882Z,23.93
2023-05-02T09:09:35.854Z,23.93
2023-05-02T09:10:35.831Z,23.95
2023-05-02T09:11:35.835Z,23.96
2023-05-02T09:12:35.852Z,23.96
2023-05-02T09:13:35.920Z,23.96
2023-05-02T09:14:35.842Z,23.97
2023-05-02T09:15:35.906Z,24.00
2023-05-02T09:16:36.005Z,24.00
2023-05-02T09:17:36.080Z,24.00
2023-05-02T09:18:36.073Z,23.96
2023-05-02T09:19:36.140Z,23.94
2023-05-02T09:20:36.201Z,23.89
2023-05-02T09:21:36.164Z,23.84
2023-05-02T09:22:36.167Z,23.81
2023-05-02T09:23:36.213Z,23.77
2023-05-02T09:24:36.177Z,23.74
2023-05-02T09:25:36.180Z,23.75
2023-05-02T09:26:36.184Z,23.76
2023-05-02T09:27:36.187Z,23.76
2023-05-02T09:28:36.218Z,23.78
2023-05-02T09:29:36.580Z,23.80
2023-05-02T09:30:36.289Z,23.82
2023-05-02T09:32:36.290Z,23.87
2023-05-02T09:33:36.424Z,23.88
2023-05-02T09:34:36.293Z,23.88
2023-05-02T09:35:36.292Z,23.89
2023-05-02T09:36:36.291Z,23.88
2023-05-02T09:37:36.317Z,23.86
2023-05-02T09:38:36.482Z,23.83
2023-05-02T09:39:36.371Z,23.68
2023-05-02T09:40:36.323Z,23.58
2023-05-02T09:41:36.347Z,23.49
2023-05-02T09:42:36.409Z,23.42
2023-05-02T09:43:36.445Z,23.38
2023-05-02T09:44:36.451Z,23.32
2023-05-02T09:45:37.036Z,23.28
2023-05-02T09:46:36.624Z,23.25
2023-05-02T09:47:36.775Z,23.23
2023-05-02T09:48:36.672Z,23.19
2023-05-02T09:49:36.699Z,23.17
2023-05-02T09:50:37.557Z,23.15
2023-05-02T09:51:36.802Z,23.13
2023-05-02T09:52:36.906Z,23.12
2023-05-02T09:53:36.981Z,23.11
2023-05-02T09:54:37.066Z,23.09
2023-05-02T09:55:37.028Z,23.07
2023-05-02T09:56:37.116Z,23.08
2023-05-02T09:57:37.140Z,23.08
2023-05-02T09:58:37.268Z,23.10
2023-05-02T09:59:37.292Z,23.12
2023-05-02T10:00:37.290Z,23.13
2023-05-02T10:01:37.423Z,23.16
2023-05-02T10:02:37.870Z,23.17
2023-05-02T10:03:37.464Z,23.19
2023-05-02T10:04:37.581Z,23.19
2023-05-02T10:05:37.554Z,23.21
2023-05-02T10:06:37.615Z,23.22
2023-05-02T10:07:37.633Z,23.23
2023-05-02T10:08:37.624Z,23.24
2023-05-02T10:09:37.650Z,23.25
2023-05-02T10:10:37.952Z,23.26
2023-05-02T10:11:37.755Z,23.26
2023-05-02T10:12:37.802Z,23.28
2023-05-02T10:13:37.838Z,23.29
2023-05-02T10:14:37.875Z,23.30
2023-05-02T10:15:37.961Z,23.32
2023-05-02T10:16:37.950Z,23.32
2023-05-02T10:17:38.148Z,23.32
2023-05-02T10:18:38.471Z,23.33
2023-05-02T10:19:38.116Z,23.35
2023-05-02T10:20:38.239Z,23.35
2023-05-02T10:21:38.176Z,23.34
2023-05-02T10:22:38.203Z,23.31
2023-05-02T10:23:38.220Z,23.27
2023-05-02T10:24:38.261Z,23.20
2023-05-02T10:25:38.344Z,23.17
2023-05-02T10:26:38.444Z,23.10
2023-05-02T10:27:38.438Z,23.02
2023-05-02T10:28:39.558Z,23.01
2023-05-02T10:29:38.550Z,23.00
2023-05-02T10:30:38.567Z,22.99
2023-05-02T10:31:38.676Z,23.03
2023-05-02T10:32:38.694Z,23.07
2023-05-02T10:33:38.700Z,23.12
2023-05-02T10:34:38.718Z,23.16
2023-05-02T10:35:38.822Z,23.21
2023-05-02T10:36:38.842Z,23.26
2023-05-02T10:37:38.863Z,23.29
2023-05-02T10:38:38.922Z,23.32
2023-05-02T10:39:38.967Z,23.36
2023-05-02T10:40:39.078Z,23.40
2023-05-02T10:41:39.015Z,23.43
2023-05-02T10:42:39.217Z,23.48
2023-05-02T10:43:39.148Z,23.49
2023-05-02T10:44:39.090Z,23.52
2023-05-02T10:45:39.152Z,23.55
2023-05-02T10:46:39.180Z,23.57
2023-05-02T10:47:39.146Z,23.60
2023-05-02T10:48:39.133Z,23.61
2023-05-02T10:49:39.127Z,23.61
2023-05-02T10:50:39.359Z,23.63
2023-05-02T10:51:39.191Z,23.66
2023-05-02T10:52:39.125Z,23.69
2023-05-02T10:53:39.161Z,23.70
2023-05-02T10:54:39.210Z,23.72
2023-05-02T10:55:39.224Z,23.74
2023-05-02T10:56:39.141Z,23.76
2023-05-02T10:57:39.137Z,23.77
2023-05-02T10:58:39.715Z,23.77
2023-05-02T10:59:39.124Z,23.80
2023-05-02T11:00:39.166Z,23.81
2023-05-02T11:01:39.115Z,23.81
2023-05-02T11:02:39.209Z,23.81
2023-05-02T11:03:39.179Z,23.81
2023-05-02T11:04:39.203Z,23.84
2023-05-02T11:05:39.160Z,23.84
2023-05-02T11:06:39.171Z,23.85
2023-05-02T11:07:39.146Z,23.85
2023-05-02T11:08:39.177Z,23.85
2023-05-02T11:09:39.215Z,23.87
2023-05-02T11:10:39.219Z,23.85
2023-05-02T11:11:39.256Z,23.83
2023-05-02T11:12:39.257Z,23.87
2023-05-02T11:13:39.260Z,23.86
2023-05-02T11:14:39.309Z,23.88
2023-05-02T11:15:39.251Z,23.87
2023-05-02T11:16:39.298Z,23.85
2023-05-02T11:17:39.381Z,23.83
2023-05-02T11:18:39.356Z,23.81
2023-05-02T11:19:39.244Z,23.79
2023-05-02T11:20:39.271Z,23.75
2023-05-02T11:21:39.363Z,23.74
2023-05-02T11:22:39.357Z,23.72
2023-05-02T11:23:39.288Z,23.70
2023-05-02T11:24:39.291Z,23.68
2023-05-02T11:25:39.299Z,23.65
2023-05-02T11:26:39.279Z,23.63
2023-05-02T11:27:39.351Z,23.62
2023-05-02T11:28:39.321Z,23.60
2023-05-02T11:29:39.346Z,23.59
2023-05-02T11:30:39.412Z,23.57
2023-05-02T11:31:39.434Z,23.56
2023-05-02T11:32:39.449Z,23.54
2023-05-02T11:33:39.417Z,23.54
2023-05-02T11:34:39.476Z,23.52
2023-05-02T11:35:39.593Z,23.51
2023-05-02T11:36:39.493Z,23.50
2023-05-02T11:37:39.505Z,23.50
2023-05-02T11:38:39.549Z,23.49
2023-05-02T11:39:39.569Z,23.47
2023-05-02T11:40:39.671Z,23.47
2023-05-02T11:41:39.618Z,23.46
2023-05-02T11:42:39.679Z,23.46
2023-05-02T11:43:39.694Z,23.45
2023-05-02T11:44:39.721Z,23.44
2023-05-02T11:45:40.081Z,23.44
2023-05-02T11:46:39.970Z,23.43
2023-05-02T11:47:39.862Z,23.43
2023-05-02T11:48:39.993Z,23.42
2023-05-02T11:49:39.937Z,23.43
2023-05-02T11:50:41.822Z,23.42
2023-05-02T11:51:39.969Z,23.41
2023-05-02T11:52:39.913Z,23.40
2023-05-02T11:53:39.913Z,23.41
2023-05-02T11:54:39.917Z,23.40
2023-05-02T11:55:39.922Z,23.39
2023-05-02T11:56:39.876Z,23.39
2023-05-02T11:57:39.877Z,23.39
2023-05-02T11:58:40.504Z,23.39
2023-05-02T11:59:39.912Z,23.40
2023-05-02T12:00:40.025Z,23.39
2023-05-02T12:01:39.901Z,23.39
2023-05-02T12:02:39.965Z,23.38
2023-05-02T12:03:40.275Z,23.38
2023-05-02T12:04:39.854Z,23.38
2023-05-02T12:05:39.865Z,23.38
2023-05-02T12:06:39.962Z,23.38
2023-05-02T12:07:39.799Z,23.38
2023-05-02T12:08:40.088Z,23.38
2023-05-02T12:09:39.822Z,23.38
2023-05-02T12:10:39.806Z,23.37
2023-05-02T12:11:39.836Z,23.36
2023-05-02T12:12:39.765Z,23.36
2023-05-02T12:13:39.879Z,23.37
2023-05-02T12:14:39.761Z,23.37
2023-05-02T12:15:39.746Z,23.36
2023-05-02T12:16:39.904Z,23.36
2023-05-02T12:17:39.846Z,23.36
2023-05-02T12:18:40.008Z,23.36
2023-05-02T12:19:39.716Z,23.35
2023-05-02T12:20:40.565Z,23.35
2023-05-02T12:21:39.705Z,23.34
2023-05-02T12:22:39.701Z,23.35
2023-05-02T12:23:39.705Z,23.34
2023-05-02T12:24:39.677Z,23.34
2023-05-02T12:25:40.051Z,23.33
2023-05-02T12:26:39.709Z,23.33
2023-05-02T12:27:39.673Z,23.33
2023-05-02T12:28:39.738Z,23.33
2023-05-02T12:29:39.751Z,23.33
2023-05-02T12:30:40.558Z,23.32
2023-05-02T12:31:39.918Z,23.31
2023-05-02T12:32:39.951Z,23.32
2023-05-02T12:33:39.929Z,23.29
2023-05-02T12:34:39.966Z,23.29
2023-05-02T12:35:40.036Z,23.29
2023-05-02T12:36:40.074Z,23.29
2023-05-02T12:37:40.106Z,23.29
2023-05-02T12:38:40.516Z,23.27
2023-05-02T12:39:40.181Z,23.28
2023-05-02T12:40:40.268Z,23.26
2023-05-02T12:41:40.304Z,23.25
2023-05-02T12:42:40.328Z,23.25
2023-05-02T12:43:40.443Z,23.25
2023-05-02T12:44:40.429Z,23.24
2023-05-02T12:45:40.526Z,23.24
2023-05-02T12:46:40.569Z,23.23
2023-05-02T12:47:40.597Z,23.22
2023-05-02T12:48:40.620Z,23.23
2023-05-02T12:49:40.748Z,23.22
2023-05-02T12:50:40.773Z,23.21
2023-05-02T12:51:40.775Z,23.21
2023-05-02T12:52:40.843Z,23.19
2023-05-02T12:53:40.921Z,23.19